Time;durP1;ratioP1;P1;durP2;ratioP2;P2;SDS_P1;SDS_P2;PMS_P1;PMS_P2;Temp;Humidity;BMP_temperature;BMP_pressure;BME280_temperature;BME280_humidity;BME280_pressure;Samples;Min_cycle;Max_cycle;Signal;HPM_P1;HPM_P2
2024/02/26 00:00:16;;;;;;;30.08;20.30;;;;;;;-146.25;100.00;52615.56;2096741;28;35292;-63
2024/02/26 00:01:17;;;;;;;27.33;19.13;;;;;;;-146.25;100.00;52607.47;2097331;28;32785;-63
2024/02/26 00:02:19;;;;;;;26.10;19.15;;;;;;;-146.25;100.00;52619.63;2096834;28;36347;-63
2024/02/26 00:03:22;;;;;;;27.95;19.25;;;;;;;-146.25;100.00;52595.28;2097941;28;20085;-63
2024/02/26 00:04:23;;;;;;;26.52;18.77;;;;;;;-146.25;100.00;52603.41;2097377;28;34514;-63
2024/02/26 00:05:25;;;;;;;26.67;19.35;;;;;;;-146.25;100.00;52627.75;2097368;28;32574;-63
2024/02/26 00:06:27;;;;;;;28.45;20.02;;;;;;;-146.25;100.00;52619.63;2097283;28;32493;-63
2024/02/26 00:07:32;;;;;;;28.15;19.80;;;;;;;-146.25;100.00;52583.13;2097632;28;20041;-62
2024/02/26 00:08:34;;;;;;;29.02;20.48;;;;;;;-146.25;100.00;52595.28;2097172;28;36497;-63
2024/02/26 00:09:37;;;;;;;27.48;19.13;;;;;;;-146.25;100.00;52629.75;2097672;28;35638;-62
2024/02/26 00:10:38;;;;;;;29.48;20.58;;;;;;;-146.25;100.00;52581.09;2096631;28;32911;-63
2024/02/26 00:11:40;;;;;;;29.35;20.85;;;;;;;-146.25;100.00;52625.72;2096582;28;36944;-63
2024/02/26 00:12:42;;;;;;;28.92;20.42;;;;;;;-146.25;100.00;52619.63;2097172;28;36553;-63
2024/02/26 00:13:44;;;;;;;28.80;20.60;;;;;;;-146.25;100.00;52637.88;2097087;28;38005;-62
2024/02/26 00:14:46;;;;;;;27.95;20.60;;;;;;;-146.25;100.00;52562.84;2096875;28;32108;-63
2024/02/26 00:15:48;;;;;;;28.55;19.58;;;;;;;-146.25;100.00;52619.63;2096870;28;35198;-62
2024/02/26 00:16:50;;;;;;;27.92;19.88;;;;;;;-146.25;100.00;52601.38;2097363;28;33289;-63
2024/02/26 00:17:52;;;;;;;27.92;19.45;;;;;;;-146.25;100.00;52607.47;2097448;28;29311;-63
2024/02/26 00:18:57;;;;;;;28.42;20.50;;;;;;;-146.25;100.00;52585.16;2097631;28;20175;-63
2024/02/26 00:20:00;;;;;;;31.30;19.85;;;;;;;-146.25;100.00;52627.75;2097194;28;27644;-63
2024/02/26 00:21:02;;;;;;;33.63;20.67;;;;;;;-146.25;100.00;52631.78;2097134;28;31444;-63
2024/02/26 00:22:04;;;;;;;28.95;20.15;;;;;;;-146.25;100.00;52609.50;2096964;28;34955;-63
2024/02/26 00:23:06;;;;;;;31.52;20.50;;;;;;;-146.25;100.00;52635.84;2096959;28;33792;-63
2024/02/26 00:24:08;;;;;;;31.83;20.88;;;;;;;-146.25;100.00;52566.91;2097018;28;36067;-63
2024/02/26 00:25:12;;;;;;;29.33;20.15;;;;;;;-146.25;100.00;52603.41;2096864;28;30580;-63
2024/02/26 00:26:15;;;;;;;26.65;18.98;;;;;;;-146.25;100.00;52597.31;2097143;28;33202;-63
2024/02/26 00:27:17;;;;;;;29.10;20.10;;;;;;;-146.25;100.00;52570.97;2097101;28;35914;-63
2024/02/26 00:28:20;;;;;;;29.00;20.00;;;;;;;-146.25;100.00;52570.97;2097151;28;31190;-63
2024/02/26 00:29:25;;;;;;;26.85;19.55;;;;;;;-146.25;100.00;52593.25;2096863;28;32837;-64
2024/02/26 00:30:29;;;;;;;27.23;17.98;;;;;;;-146.25;100.00;52597.31;2096923;28;32400;-63
2024/02/26 00:31:31;;;;;;;25.88;18.60;;;;;;;-146.25;100.00;52583.13;2097263;28;34991;-64
2024/02/26 00:32:33;;;;;;;31.08;20.17;;;;;;;-146.25;100.00;52595.28;2097102;28;33277;-64
2024/02/26 00:33:35;;;;;;;24.25;17.38;;;;;;;-146.25;100.00;52599.34;2097229;28;29830;-63
2024/02/26 00:34:37;;;;;;;26.98;19.48;;;;;;;-146.25;100.00;52558.78;2097006;28;33987;-64
2024/02/26 00:35:38;;;;;;;30.67;19.75;;;;;;;-146.25;100.00;52633.81;2096653;28;37938;-63
2024/02/26 00:36:40;;;;;;;27.63;19.60;;;;;;;-146.25;100.00;52611.50;2096914;28;37913;-64
2024/02/26 00:37:43;;;;;;;29.85;18.70;;;;;;;-146.25;100.00;52562.84;2097102;28;33414;-63
2024/02/26 00:38:50;;;;;;;27.63;19.30;;;;;;;-146.25;100.00;52607.47;2097218;28;34764;-63
2024/02/26 00:39:54;;;;;;;29.85;20.42;;;;;;;-146.25;100.00;52573.00;2097186;28;28829;-64
2024/02/26 00:40:56;;;;;;;28.10;20.27;;;;;;;-146.25;100.00;52611.50;2096820;28;33745;-65
2024/02/26 00:41:58;;;;;;;31.40;20.33;;;;;;;-146.25;100.00;52583.13;2096142;28;32758;-64
2024/02/26 00:43:00;;;;;;;33.78;21.25;;;;;;;-146.25;100.00;52583.13;2096425;28;32485;-65
2024/02/26 00:44:01;;;;;;;31.40;20.73;;;;;;;-146.25;100.00;52619.63;2096991;28;32112;-62
2024/02/26 00:45:03;;;;;;;31.48;20.23;;;;;;;-146.25;100.00;52617.59;2096508;28;33783;-63
2024/02/26 00:46:05;;;;;;;31.38;20.58;;;;;;;-146.25;100.00;52611.50;2096835;28;26851;-63
2024/02/26 00:47:07;;;;;;;32.80;20.63;;;;;;;-146.25;100.00;52573.00;2096695;28;36663;-63
2024/02/26 00:48:09;;;;;;;31.98;21.15;;;;;;;-146.25;100.00;52587.19;2096990;28;30668;-63
2024/02/26 00:49:10;;;;;;;32.05;21.05;;;;;;;-146.25;100.00;52629.75;2097041;28;35209;-63
2024/02/26 00:50:13;;;;;;;33.58;21.17;;;;;;;-146.25;100.00;52625.72;2096809;28;35712;-63
2024/02/26 00:51:15;;;;;;;34.42;21.65;;;;;;;-146.25;100.00;52633.81;2096955;28;38810;-62
2024/02/26 00:52:20;;;;;;;28.52;19.30;;;;;;;-146.25;100.00;52654.09;2097013;28;20795;-63
2024/02/26 00:53:21;;;;;;;31.75;20.38;;;;;;;-146.25;100.00;52595.28;2096958;28;34325;-62
2024/02/26 00:54:23;;;;;;;30.60;19.20;;;;;;;-146.25;100.00;52607.47;2097436;28;34406;-62
2024/02/26 00:55:25;;;;;;;31.00;20.13;;;;;;;-146.25;100.00;52599.34;2096857;28;35235;-62
2024/02/26 00:56:27;;;;;;;28.83;19.40;;;;;;;-146.25;100.00;52619.63;2096658;28;36345;-63
2024/02/26 00:57:29;;;;;;;29.25;18.95;;;;;;;-146.25;100.00;52605.44;2096865;28;32765;-63
2024/02/26 00:58:30;;;;;;;30.45;18.67;;;;;;;-146.25;100.00;52603.41;2096465;28;35025;-63
2024/02/26 00:59:32;;;;;;;32.17;19.23;;;;;;;-146.25;100.00;52591.25;2096902;28;34893;-63
2024/02/26 01:00:34;;;;;;;28.83;19.52;;;;;;;-146.25;100.00;52603.41;2096713;28;33241;-63
2024/02/26 01:01:36;;;;;;;29.05;19.25;;;;;;;-146.25;100.00;52635.84;2096739;28;34745;-63
2024/02/26 01:02:38;;;;;;;29.55;19.75;;;;;;;-146.25;100.00;52560.81;2096706;28;34671;-63
2024/02/26 01:03:40;;;;;;;30.10;19.35;;;;;;;-146.25;100.00;52613.53;2096174;28;32636;-63
2024/02/26 01:04:42;;;;;;;28.95;18.85;;;;;;;-146.25;100.00;52623.69;2097112;28;28349;-63
2024/02/26 01:05:44;;;;;;;28.35;19.08;;;;;;;-146.25;100.00;52587.19;2096919;28;29715;-62
2024/02/26 01:06:46;;;;;;;31.73;18.88;;;;;;;-146.25;100.00;52619.63;2096739;28;34971;-63
2024/02/26 01:07:48;;;;;;;28.15;19.48;;;;;;;-146.25;100.00;52611.50;2097052;28;30983;-64
2024/02/26 01:08:50;;;;;;;29.23;19.27;;;;;;;-146.25;100.00;52573.00;2096437;28;34687;-63
2024/02/26 01:09:52;;;;;;;29.10;19.83;;;;;;;-146.25;100.00;52570.97;2096722;28;37149;-64
2024/02/26 01:10:53;;;;;;;24.48;17.80;;;;;;;-146.25;100.00;52607.47;2096267;28;36723;-63
2024/02/26 01:11:55;;;;;;;28.08;19.17;;;;;;;-146.25;100.00;52615.56;2096312;28;34976;-63
2024/02/26 01:12:57;;;;;;;27.92;18.65;;;;;;;-146.25;100.00;52587.19;2096596;28;35941;-63
2024/02/26 01:14:01;;;;;;;31.40;19.88;;;;;;;-146.25;100.00;52613.53;2096546;28;33393;-64
2024/02/26 01:15:03;;;;;;;28.33;18.90;;;;;;;-146.25;100.00;52629.75;2096336;28;36661;-63
2024/02/26 01:16:05;;;;;;;28.92;18.95;;;;;;;-146.25;100.00;52599.34;2096761;28;30586;-63
2024/02/26 01:17:07;;;;;;;27.52;18.80;;;;;;;-146.25;100.00;52613.53;2096705;28;34637;-63
2024/02/26 01:18:09;;;;;;;28.65;18.50;;;;;;;-146.25;100.00;52570.97;2096889;28;34967;-63
2024/02/26 01:19:15;;;;;;;27.90;17.67;;;;;;;-146.25;100.00;52627.75;2096415;28;21730;-64
2024/02/26 01:20:17;;;;;;;27.77;18.23;;;;;;;-146.25;100.00;52607.47;2097264;28;20645;-63
2024/02/26 01:21:21;;;;;;;31.00;19.15;;;;;;;-146.25;100.00;52605.44;2096701;28;31995;-63
2024/02/26 01:22:23;;;;;;;29.33;18.95;;;;;;;-146.25;100.00;52623.69;2096689;28;34884;-63
2024/02/26 01:23:27;;;;;;;32.10;18.20;;;;;;;-146.25;100.00;52566.91;2096877;28;34930;-63
2024/02/26 01:24:29;;;;;;;25.65;17.63;;;;;;;-146.25;100.00;52601.38;2096418;28;36959;-62
2024/02/26 01:25:33;;;;;;;27.88;18.23;;;;;;;-146.25;100.00;52577.03;2097059;28;20041;-62
2024/02/26 01:26:35;;;;;;;29.58;17.80;;;;;;;-146.25;100.00;52658.16;2096230;28;34922;-63
2024/02/26 01:27:37;;;;;;;27.38;17.42;;;;;;;-146.25;100.00;52611.50;2096907;28;32287;-63
2024/02/26 01:28:39;;;;;;;27.27;17.83;;;;;;;-146.25;100.00;52601.38;2096601;28;32928;-63
2024/02/26 01:29:41;;;;;;;25.65;17.92;;;;;;;-146.25;100.00;52595.28;2104009;28;32213;-63
2024/02/26 01:30:46;;;;;;;30.98;18.85;;;;;;;-146.25;100.00;52631.78;2104096;28;37962;-63
2024/02/26 01:31:47;;;;;;;27.73;18.17;;;;;;;-146.25;100.00;52595.28;2096589;28;32569;-63
2024/02/26 01:32:49;;;;;;;24.60;17.30;;;;;;;-146.25;100.00;52562.84;2096315;28;36880;-63
2024/02/26 01:33:51;;;;;;;27.27;16.73;;;;;;;-146.25;100.00;52603.41;2096477;28;33925;-63
2024/02/26 01:34:53;;;;;;;27.23;17.30;;;;;;;-146.25;100.00;52627.75;2096600;28;33922;-63
2024/02/26 01:35:55;;;;;;;26.27;16.92;;;;;;;-146.25;100.00;52601.38;2096569;28;32140;-63
2024/02/26 01:36:58;;;;;;;27.67;17.52;;;;;;;-146.25;100.00;52583.13;2097473;28;20114;-63
2024/02/26 01:38:00;;;;;;;27.25;17.95;;;;;;;-146.25;100.00;52597.31;2096826;28;31430;-63
2024/02/26 01:39:03;;;;;;;29.58;18.58;;;;;;;-146.25;100.00;52613.53;2096545;28;33618;-63
2024/02/26 01:40:09;;;;;;;26.90;17.17;;;;;;;-146.25;100.00;52597.31;2096203;28;31654;-63
2024/02/26 01:41:14;;;;;;;28.15;18.15;;;;;;;-146.25;100.00;52589.22;2096859;28;35230;-63
2024/02/26 01:42:16;;;;;;;29.00;18.65;;;;;;;-146.25;100.00;52560.81;2096220;28;31699;-63
2024/02/26 01:43:17;;;;;;;29.98;19.13;;;;;;;-146.25;100.00;52589.22;2096621;28;32998;-63
2024/02/26 01:44:19;;;;;;;28.35;18.30;;;;;;;-146.25;100.00;52619.63;2096299;28;36137;-63
2024/02/26 01:45:23;;;;;;;29.40;18.77;;;;;;;-146.25;100.00;52587.19;2096139;28;37657;-64
2024/02/26 01:46:26;;;;;;;29.02;17.90;;;;;;;-146.25;100.00;52668.28;2096324;28;33251;-64
2024/02/26 01:47:28;;;;;;;30.70;19.52;;;;;;;-146.25;100.00;52579.06;2096476;28;35095;-63
2024/02/26 01:48:30;;;;;;;28.00;18.30;;;;;;;-146.25;100.00;52617.59;2096407;28;33146;-64
2024/02/26 01:49:32;;;;;;;29.02;18.23;;;;;;;-146.25;100.00;52575.00;2096313;28;36929;-63
2024/02/26 01:50:37;;;;;;;27.33;17.75;;;;;;;-146.25;100.00;52593.25;2096499;28;20033;-63
2024/02/26 01:51:43;;;;;;;31.77;18.85;;;;;;;-146.25;100.00;52595.28;2096005;28;34430;-64
2024/02/26 01:52:47;;;;;;;30.33;18.70;;;;;;;-146.25;100.00;52585.16;2096587;28;32814;-64
2024/02/26 01:53:49;;;;;;;28.98;18.63;;;;;;;-146.25;100.00;52579.06;2096491;28;32991;-63
2024/02/26 01:54:51;;;;;;;30.75;18.17;;;;;;;-146.25;100.00;52627.75;2095457;28;38336;-63
2024/02/26 01:55:52;;;;;;;29.60;18.50;;;;;;;-146.25;100.00;52595.28;2096127;28;34165;-63
2024/02/26 01:56:55;;;;;;;27.60;17.83;;;;;;;-146.25;100.00;52599.34;2097107;28;20033;-63
2024/02/26 01:57:57;;;;;;;31.05;19.02;;;;;;;-146.25;100.00;52615.56;2097152;28;20468;-63
2024/02/26 01:58:59;;;;;;;30.02;18.92;;;;;;;-146.25;100.00;52609.50;2096449;28;36487;-63
2024/02/26 02:00:02;;;;;;;30.00;19.35;;;;;;;-146.25;100.00;52617.59;2096228;28;38942;-63
2024/02/26 02:01:06;;;;;;;30.05;17.92;;;;;;;-146.25;100.00;52615.56;2096997;28;20048;-63
2024/02/26 02:02:11;;;;;;;29.15;19.13;;;;;;;-146.25;100.00;52625.72;2095874;28;36312;-63
2024/02/26 02:03:13;;;;;;;31.38;19.35;;;;;;;-146.25;100.00;52617.59;2096067;28;36408;-64
2024/02/26 02:04:16;;;;;;;31.92;19.58;;;;;;;-146.25;100.00;52583.13;2087966;28;34734;-63
2024/02/26 02:05:20;;;;;;;34.72;19.90;;;;;;;-146.25;100.00;52635.84;2087557;28;36664;-63
2024/02/26 02:06:22;;;;;;;31.75;19.50;;;;;;;-146.25;100.00;52554.75;2087961;28;35513;-63
2024/02/26 02:07:24;;;;;;;32.55;19.65;;;;;;;-146.25;100.00;52623.69;2087834;28;34360;-63
2024/02/26 02:08:27;;;;;;;33.47;19.15;;;;;;;-146.25;100.00;52639.91;2096193;28;20895;-63
2024/02/26 02:09:29;;;;;;;31.30;19.33;;;;;;;-146.25;100.00;52631.78;2095553;28;33849;-63
2024/02/26 02:10:31;;;;;;;30.75;18.75;;;;;;;-146.25;100.00;52615.56;2095296;28;32494;-63
2024/02/26 02:11:34;;;;;;;29.63;19.05;;;;;;;-146.25;100.00;52631.78;2096743;28;32539;-63
2024/02/26 02:12:38;;;;;;;35.85;19.45;;;;;;;-146.25;100.00;52599.34;2096465;28;32869;-63
2024/02/26 02:13:40;;;;;;;33.30;20.15;;;;;;;-146.25;100.00;52605.44;2096303;28;34587;-63
2024/02/26 02:14:42;;;;;;;33.17;19.60;;;;;;;-146.25;100.00;52631.78;2095627;28;32298;-63
2024/02/26 02:15:46;;;;;;;31.85;19.48;;;;;;;-146.25;100.00;52579.06;2095458;28;20049;-63
2024/02/26 02:16:48;;;;;;;31.05;19.02;;;;;;;-146.25;100.00;52625.72;2096296;28;35916;-63
2024/02/26 02:17:52;;;;;;;33.08;19.17;;;;;;;-146.25;100.00;52579.06;2095618;28;33524;-63
2024/02/26 02:18:54;;;;;;;33.40;19.30;;;;;;;-146.25;100.00;52589.22;2095591;28;35122;-63
2024/02/26 02:19:56;;;;;;;32.72;18.88;;;;;;;-146.25;100.00;52599.34;2095179;28;35353;-63
2024/02/26 02:21:00;;;;;;;34.42;19.77;;;;;;;-146.25;100.00;52599.34;2096467;28;20040;-63
2024/02/26 02:22:02;;;;;;;30.27;18.80;;;;;;;-146.25;100.00;52573.00;2095734;28;35456;-64
2024/02/26 02:23:04;;;;;;;31.95;19.17;;;;;;;-146.25;100.00;52625.72;2096129;28;33710;-63
2024/02/26 02:24:06;;;;;;;35.95;20.13;;;;;;;-146.25;100.00;52633.81;2096264;28;33839;-64
2024/02/26 02:25:10;;;;;;;36.05;19.55;;;;;;;-146.25;100.00;52615.56;2096491;28;34717;-63
2024/02/26 02:26:13;;;;;;;31.98;19.02;;;;;;;-146.25;100.00;52615.56;2096018;28;35811;-63
2024/02/26 02:27:15;;;;;;;33.35;19.40;;;;;;;-146.25;100.00;52603.41;2095883;28;20056;-63
2024/02/26 02:28:18;;;;;;;30.60;18.13;;;;;;;-146.25;100.00;52611.50;2095624;28;35627;-63
2024/02/26 02:29:20;;;;;;;30.13;18.38;;;;;;;-146.25;100.00;52639.91;2095449;28;35813;-64
2024/02/26 02:30:29;;;;;;;28.80;17.30;;;;;;;-146.25;100.00;52643.97;2096411;28;34645;-64
2024/02/26 02:31:34;;;;;;;30.73;18.73;;;;;;;-146.25;100.00;52615.56;2096801;28;20026;-64
2024/02/26 02:32:43;;;;;;;31.42;18.55;;;;;;;-146.25;100.00;52609.50;2113321;28;20048;-63
2024/02/26 02:33:45;;;;;;;31.67;19.60;;;;;;;-146.25;100.00;52599.34;2103008;28;34307;-64
2024/02/26 02:34:49;;;;;;;33.10;18.83;;;;;;;-146.25;100.00;52619.63;2095606;28;36053;-63
2024/02/26 02:35:55;;;;;;;31.58;18.00;;;;;;;-146.25;100.00;52623.69;2096231;28;34653;-63
2024/02/26 02:36:56;;;;;;;33.05;19.30;;;;;;;-146.25;100.00;52603.41;2096541;28;35009;-63
2024/02/26 02:37:58;;;;;;;30.05;18.25;;;;;;;-146.25;100.00;52611.50;2096286;28;33984;-64
2024/02/26 02:39:00;;;;;;;34.45;19.27;;;;;;;-146.25;100.00;52599.34;2096512;28;33011;-63
2024/02/26 02:40:02;;;;;;;32.75;19.38;;;;;;;-146.25;100.00;52617.59;2096416;28;31388;-63
2024/02/26 02:41:06;;;;;;;36.45;20.02;;;;;;;-146.25;100.00;52627.75;2096307;28;34236;-63
2024/02/26 02:42:08;;;;;;;35.10;19.38;;;;;;;-146.25;100.00;52623.69;2095910;28;34553;-63
2024/02/26 02:43:10;;;;;;;34.25;19.77;;;;;;;-146.25;100.00;52641.94;2095812;28;37141;-63
2024/02/26 02:44:12;;;;;;;33.08;20.52;;;;;;;-146.25;100.00;52625.72;2096386;28;28772;-63
2024/02/26 02:45:14;;;;;;;36.30;20.27;;;;;;;-146.25;100.00;52599.34;2096347;28;37238;-62
2024/02/26 02:46:16;;;;;;;36.15;20.95;;;;;;;-146.25;100.00;52615.56;2096109;28;36714;-63
2024/02/26 02:47:17;;;;;;;42.08;22.02;;;;;;;-146.25;100.00;52599.34;2093781;28;35049;-63
2024/02/26 02:48:19;;;;;;;37.78;21.25;;;;;;;-146.25;100.00;52597.31;2094969;28;36239;-62
2024/02/26 02:49:23;;;;;;;39.42;20.77;;;;;;;-146.25;100.00;52658.16;2095597;28;35186;-62
2024/02/26 02:50:25;;;;;;;39.22;20.60;;;;;;;-146.25;100.00;52603.41;2095747;28;35608;-63
2024/02/26 02:51:27;;;;;;;40.80;21.75;;;;;;;-146.25;100.00;52603.41;2096745;28;20123;-65
2024/02/26 02:52:29;;;;;;;38.95;20.15;;;;;;;-146.25;100.00;52615.56;2096438;28;31173;-65
2024/02/26 02:53:30;;;;;;;35.03;20.77;;;;;;;-146.25;100.00;52593.25;2095863;28;36569;-64
2024/02/26 02:54:36;;;;;;;37.63;21.13;;;;;;;-146.25;100.00;52648.00;2096206;28;37380;-64
2024/02/26 02:55:38;;;;;;;38.28;21.50;;;;;;;-146.25;100.00;52666.25;2095969;28;36980;-64
2024/02/26 02:56:43;;;;;;;35.90;20.92;;;;;;;-146.25;100.00;52589.22;2096166;28;33908;-64
2024/02/26 02:57:45;;;;;;;42.20;22.17;;;;;;;-146.25;100.00;52605.44;2096314;28;29812;-64
2024/02/26 02:58:46;;;;;;;40.25;21.58;;;;;;;-146.25;100.00;52627.75;2096171;28;30933;-64
2024/02/26 02:59:50;;;;;;;40.10;21.27;;;;;;;-146.25;100.00;52599.34;2096351;28;34285;-64
2024/02/26 03:00:55;;;;;;;41.25;21.67;;;;;;;-146.25;100.00;52609.50;2100555;28;32490;-64
2024/02/26 03:01:56;;;;;;;37.70;21.35;;;;;;;-146.25;100.00;52609.50;2104384;28;31263;-62
2024/02/26 03:02:58;;;;;;;42.40;22.38;;;;;;;-146.25;100.00;52609.50;2104339;28;35262;-63
2024/02/26 03:04:00;;;;;;;39.47;22.00;;;;;;;-146.25;100.00;52631.78;2104205;28;33153;-62
2024/02/26 03:05:04;;;;;;;38.33;21.67;;;;;;;-146.25;100.00;52605.44;2104105;28;35961;-63
2024/02/26 03:06:06;;;;;;;39.47;22.27;;;;;;;-146.25;100.00;52603.41;2103818;28;36893;-63
2024/02/26 03:07:08;;;;;;;39.22;22.45;;;;;;;-146.25;100.00;52605.44;2104156;28;34749;-62
2024/02/26 03:08:09;;;;;;;41.03;22.55;;;;;;;-146.25;100.00;52603.41;2104743;28;34618;-62
2024/02/26 03:09:11;;;;;;;41.45;22.33;;;;;;;-146.25;100.00;52611.50;2104068;28;31437;-62
2024/02/26 03:10:13;;;;;;;40.20;21.63;;;;;;;-146.25;100.00;52577.03;2104647;28;35042;-63
2024/02/26 03:11:15;;;;;;;39.50;20.45;;;;;;;-146.25;100.00;52566.91;2104696;28;20033;-63
2024/02/26 03:12:17;;;;;;;41.63;23.15;;;;;;;-146.25;100.00;52605.44;2104893;28;25550;-62
2024/02/26 03:13:20;;;;;;;40.63;21.70;;;;;;;-146.25;100.00;52637.88;2105130;28;23593;-62
2024/02/26 03:14:22;;;;;;;39.20;22.30;;;;;;;-146.25;100.00;52601.38;2104729;28;29374;-63
2024/02/26 03:15:23;;;;;;;42.42;22.20;;;;;;;-146.25;100.00;52615.56;2104703;28;26213;-62
2024/02/26 03:16:25;;;;;;;43.35;22.27;;;;;;;-146.25;100.00;52619.63;2104613;28;20734;-65
2024/02/26 03:17:30;;;;;;;40.75;21.73;;;;;;;-146.25;100.00;52660.19;2104678;28;20072;-62
2024/02/26 03:18:34;;;;;;;42.03;22.90;;;;;;;-146.25;100.00;52615.56;2097468;28;36874;-63
2024/02/26 03:19:37;;;;;;;41.00;22.33;;;;;;;-146.25;100.00;52619.63;2096981;28;20148;-63
2024/02/26 03:20:39;;;;;;;42.60;23.65;;;;;;;-146.25;100.00;52593.25;2096262;28;34667;-63
2024/02/26 03:21:40;;;;;;;41.50;21.92;;;;;;;-146.25;100.00;52629.75;2095972;28;34559;-62
2024/02/26 03:22:45;;;;;;;41.15;22.75;;;;;;;-146.25;100.00;52603.41;2096948;28;20045;-63
2024/02/26 03:23:47;;;;;;;40.60;22.20;;;;;;;-146.25;100.00;52615.56;2095946;28;34997;-65
2024/02/26 03:24:48;;;;;;;43.35;22.35;;;;;;;-146.25;100.00;52613.53;2096317;28;26947;-63
2024/02/26 03:25:50;;;;;;;41.38;21.98;;;;;;;-146.25;100.00;52613.53;2096762;28;20041;-62
2024/02/26 03:26:52;;;;;;;41.60;21.83;;;;;;;-146.25;100.00;52623.69;2097265;28;34517;-62
2024/02/26 03:27:58;;;;;;;38.13;20.42;;;;;;;-146.25;100.00;52607.47;2097595;28;20037;-62
2024/02/26 03:29:01;;;;;;;39.42;21.85;;;;;;;-146.25;100.00;52621.66;2097546;28;31031;-62
2024/02/26 03:30:03;;;;;;;42.70;21.80;;;;;;;-146.25;100.00;52599.34;2097658;28;35317;-62
2024/02/26 03:31:05;;;;;;;35.80;20.52;;;;;;;-146.25;100.00;52627.75;2097431;28;33395;-62
2024/02/26 03:32:07;;;;;;;35.17;20.02;;;;;;;-146.25;100.00;52589.22;2097654;28;33331;-62
2024/02/26 03:33:09;;;;;;;35.63;19.10;;;;;;;-146.25;100.00;52601.38;2097360;28;31545;-62
2024/02/26 03:34:12;;;;;;;34.67;19.42;;;;;;;-146.25;100.00;52579.06;2097212;28;35421;-63
2024/02/26 03:35:14;;;;;;;34.38;19.42;;;;;;;-146.25;100.00;52623.69;2097412;28;32009;-62
2024/02/26 03:36:16;;;;;;;35.08;18.92;;;;;;;-146.25;100.00;52593.25;2097082;28;34207;-62
2024/02/26 03:37:18;;;;;;;33.05;19.08;;;;;;;-146.25;100.00;52581.09;2097596;28;35456;-62
2024/02/26 03:38:19;;;;;;;39.08;21.20;;;;;;;-146.25;100.00;52656.13;2097530;28;33290;-62
2024/02/26 03:39:22;;;;;;;38.88;20.75;;;;;;;-146.25;100.00;52595.28;2097024;28;33402;-62
2024/02/26 03:40:24;;;;;;;39.63;21.38;;;;;;;-146.25;100.00;52611.50;2097351;28;32809;-62
2024/02/26 03:41:26;;;;;;;40.22;20.92;;;;;;;-146.25;100.00;52599.34;2097113;28;37531;-62
2024/02/26 03:42:28;;;;;;;42.47;21.17;;;;;;;-146.25;100.00;52641.94;2097322;28;36912;-63
2024/02/26 03:43:29;;;;;;;39.65;20.42;;;;;;;-146.25;100.00;52615.56;2097757;28;33005;-63
2024/02/26 03:44:33;;;;;;;37.97;21.13;;;;;;;-146.25;100.00;52617.59;2097332;28;35945;-62
2024/02/26 03:45:35;;;;;;;34.53;19.35;;;;;;;-146.25;100.00;52654.09;2097331;28;32400;-62
2024/02/26 03:46:37;;;;;;;36.83;19.75;;;;;;;-146.25;100.00;52595.28;2096791;28;32906;-63
2024/02/26 03:47:39;;;;;;;38.22;20.52;;;;;;;-146.25;100.00;52613.53;2097052;28;36471;-63
2024/02/26 03:48:42;;;;;;;38.47;20.70;;;;;;;-146.25;100.00;52613.53;2097201;28;32822;-63
2024/02/26 03:49:47;;;;;;;38.40;20.48;;;;;;;-146.25;100.00;52627.75;2096842;28;38673;-63
2024/02/26 03:50:48;;;;;;;40.17;20.02;;;;;;;-146.25;100.00;52617.59;2096857;28;36592;-63
2024/02/26 03:51:50;;;;;;;45.08;20.60;;;;;;;-146.25;100.00;52583.13;2097624;28;32311;-63
2024/02/26 03:52:52;;;;;;;44.30;20.00;;;;;;;-146.25;100.00;52625.72;2097328;28;35603;-63
2024/02/26 03:53:54;;;;;;;42.50;20.88;;;;;;;-146.25;100.00;52627.75;2098187;28;20167;-63
2024/02/26 03:54:55;;;;;;;41.85;20.77;;;;;;;-146.25;100.00;52599.34;2097273;28;32058;-63
2024/02/26 03:55:57;;;;;;;41.22;21.05;;;;;;;-146.25;100.00;52635.84;2097573;28;34975;-63
2024/02/26 03:56:59;;;;;;;38.15;20.83;;;;;;;-146.25;100.00;52654.09;2097392;28;31139;-63
2024/02/26 03:58:01;;;;;;;39.03;20.33;;;;;;;-146.25;100.00;52615.56;2097434;28;35275;-63
2024/02/26 03:59:02;;;;;;;44.33;22.48;;;;;;;-146.25;100.00;52615.56;2097939;28;20164;-63
2024/02/26 04:00:06;;;;;;;43.30;20.88;;;;;;;-146.25;100.00;52619.63;2097138;28;38061;-63
2024/02/26 04:01:11;;;;;;;44.25;21.20;;;;;;;-146.25;100.00;52621.66;2097341;28;20187;-62
2024/02/26 04:02:13;;;;;;;53.50;22.80;;;;;;;-146.25;100.00;52617.59;2097912;28;20134;-62
2024/02/26 04:03:15;;;;;;;50.78;21.92;;;;;;;-146.25;100.00;52595.28;2096918;28;37100;-62
2024/02/26 04:04:17;;;;;;;52.53;22.55;;;;;;;-146.25;100.00;52581.09;2097483;28;32771;-62
2024/02/26 04:05:19;;;;;;;52.67;23.23;;;;;;;-146.25;100.00;52601.38;2096998;28;34785;-62
2024/02/26 04:06:22;;;;;;;54.67;23.05;;;;;;;-146.25;100.00;52599.34;2097227;28;33987;-62
2024/02/26 04:07:24;;;;;;;52.20;24.38;;;;;;;-146.25;100.00;52629.75;2097959;28;20118;-62
2024/02/26 04:08:26;;;;;;;55.70;24.10;;;;;;;-146.25;100.00;52627.75;2097185;28;37592;-63
2024/02/26 04:09:33;;;;;;;59.95;24.65;;;;;;;-146.25;100.00;52625.72;2097160;28;32645;-62
2024/02/26 04:10:38;;;;;;;59.58;25.02;;;;;;;-146.25;100.00;52625.72;2097218;28;20262;-62
2024/02/26 04:11:40;;;;;;;58.28;23.85;;;;;;;-146.25;100.00;52607.47;2098052;28;20045;-62
2024/02/26 04:12:43;;;;;;;57.75;24.80;;;;;;;-146.25;100.00;52637.88;2097541;28;21845;-62
2024/02/26 04:13:49;;;;;;;63.50;25.92;;;;;;;-146.25;100.00;52670.31;2096731;28;36703;-62
2024/02/26 04:14:51;;;;;;;58.33;25.13;;;;;;;-146.25;100.00;52585.16;2097769;28;31544;-63
2024/02/26 04:15:52;;;;;;;61.88;25.92;;;;;;;-146.25;100.00;52625.72;2097244;28;36994;-62
2024/02/26 04:16:54;;;;;;;66.85;26.90;;;;;;;-146.25;100.00;52581.09;2097126;28;33611;-62
2024/02/26 04:17:58;;;;;;;64.40;25.40;;;;;;;-146.25;100.00;52595.28;2096935;28;32161;-63
2024/02/26 04:19:00;;;;;;;66.55;26.10;;;;;;;-146.25;100.00;52643.97;2097034;28;34989;-62
2024/02/26 04:20:05;;;;;;;66.22;26.15;;;;;;;-146.25;100.00;52639.91;2097323;28;31753;-62
2024/02/26 04:21:07;;;;;;;63.13;26.40;;;;;;;-146.25;100.00;52615.56;2096719;28;32954;-62
2024/02/26 04:22:09;;;;;;;64.63;26.33;;;;;;;-146.25;100.00;52587.19;2097627;28;35083;-62
2024/02/26 04:23:11;;;;;;;71.25;27.85;;;;;;;-146.25;100.00;52591.25;2097468;28;29780;-62
2024/02/26 04:24:13;;;;;;;72.47;27.77;;;;;;;-146.25;100.00;52613.53;2097150;28;35230;-62
2024/02/26 04:25:15;;;;;;;74.30;28.38;;;;;;;-146.25;100.00;52603.41;2097170;28;30187;-62
2024/02/26 04:26:17;;;;;;;76.63;28.95;;;;;;;-146.25;100.00;52589.22;2097157;28;35388;-62
2024/02/26 04:27:18;;;;;;;79.40;29.33;;;;;;;-146.25;100.00;52603.41;2097274;28;33440;-62
2024/02/26 04:28:20;;;;;;;80.22;29.70;;;;;;;-146.25;100.00;52603.41;2097220;28;34427;-63
2024/02/26 04:29:22;;;;;;;73.50;28.48;;;;;;;-146.25;100.00;52633.81;2097612;28;20118;-63
2024/02/26 04:30:24;;;;;;;79.30;29.63;;;;;;;-146.25;100.00;52635.84;2097143;28;36411;-62
2024/02/26 04:31:26;;;;;;;78.95;29.58;;;;;;;-146.25;100.00;52662.22;2097118;28;35805;-62
2024/02/26 04:32:29;;;;;;;74.18;29.65;;;;;;;-146.25;100.00;52619.63;2096627;28;33177;-62
2024/02/26 04:33:34;;;;;;;82.47;31.10;;;;;;;-146.25;100.00;52611.50;2097111;28;33474;-62
2024/02/26 04:34:37;;;;;;;87.50;30.73;;;;;;;-146.25;100.00;52625.72;2097736;28;20041;-62
2024/02/26 04:35:38;;;;;;;85.05;31.95;;;;;;;-146.25;100.00;52611.50;2097191;28;38448;-62
2024/02/26 04:36:40;;;;;;;86.28;31.05;;;;;;;-146.25;100.00;52599.34;2098092;28;20037;-62
2024/02/26 04:37:42;;;;;;;81.55;31.10;;;;;;;-146.25;100.00;52595.28;2096712;28;37432;-63